createdAt,value
2024-05-09T00:00:54.395Z,100.00
2024-05-09T00:06:02.646Z,100.00
2024-05-09T00:11:08.442Z,100.00
2024-05-09T00:16:13.955Z,100.00
2024-05-09T00:21:22.021Z,100.00
2024-05-09T00:26:27.966Z,100.00
2024-05-09T00:31:34.568Z,100.00
2024-05-09T00:36:42.592Z,100.00
2024-05-09T00:41:48.139Z,100.00
2024-05-09T00:46:56.303Z,100.00
2024-05-09T00:52:05.669Z,100.00
2024-05-09T00:57:11.111Z,100.00
2024-05-09T01:02:16.712Z,100.00
2024-05-09T01:07:24.893Z,100.00
2024-05-09T01:12:30.444Z,100.00
2024-05-09T01:17:36.700Z,100.00
2024-05-09T01:22:44.922Z,100.00
2024-05-09T01:27:53.000Z,100.00
2024-05-09T01:32:58.605Z,100.00
2024-05-09T01:38:04.381Z,100.00
2024-05-09T01:43:12.903Z,100.00
2024-05-09T01:48:18.565Z,100.00
2024-05-09T01:53:24.151Z,100.00
2024-05-09T01:58:33.230Z,100.00
2024-05-09T02:03:38.781Z,100.00
2024-05-09T02:08:44.424Z,100.00
2024-05-09T02:13:52.755Z,100.00
2024-05-09T02:18:58.412Z,100.00
2024-05-09T02:24:04.199Z,100.00
2024-05-09T02:29:12.268Z,100.00
2024-05-09T02:34:17.826Z,100.00
2024-05-09T02:39:23.407Z,100.00
2024-05-09T02:44:31.627Z,100.00
2024-05-09T02:49:37.398Z,100.00
2024-05-09T02:54:42.888Z,100.00
2024-05-09T02:59:54.408Z,100.00
2024-05-09T03:04:59.897Z,100.00
2024-05-09T03:10:11.813Z,100.00
2024-05-09T03:15:22.766Z,100.00
2024-05-09T03:20:33.544Z,100.00
2024-05-09T03:25:41.032Z,100.00
2024-05-09T03:30:49.088Z,100.00
2024-05-09T03:35:54.522Z,100.00
2024-05-09T03:41:00.796Z,100.00
2024-05-09T03:46:08.856Z,100.00
2024-05-09T03:51:14.439Z,100.00
2024-05-09T03:56:19.933Z,100.00
2024-05-09T04:01:30.110Z,100.00
2024-05-09T04:06:35.662Z,100.00
2024-05-09T04:11:41.241Z,100.00
2024-05-09T04:16:52.272Z,100.00
2024-05-09T04:21:57.745Z,100.00
2024-05-09T04:27:03.176Z,100.00
2024-05-09T04:32:11.858Z,100.00
2024-05-09T04:37:17.384Z,100.00
2024-05-09T04:42:22.838Z,100.00
2024-05-09T04:47:31.193Z,100.00
2024-05-09T04:52:36.732Z,100.00
2024-05-09T04:57:42.195Z,100.00
2024-05-09T05:02:50.305Z,100.00
2024-05-09T05:07:56.301Z,100.00
2024-05-09T05:13:23.854Z,100.00
2024-05-09T05:18:32.833Z,100.00
2024-05-09T05:23:38.494Z,100.00
2024-05-09T05:28:44.168Z,100.00
2024-05-09T05:33:52.680Z,100.00
2024-05-09T05:38:58.308Z,100.00
2024-05-09T05:44:03.909Z,100.00
2024-05-09T05:49:12.255Z,100.00
2024-05-09T05:54:17.932Z,100.00
2024-05-09T05:59:24.061Z,100.00
2024-05-09T06:04:32.385Z,100.00
2024-05-09T06:09:38.328Z,100.00
2024-05-09T06:14:44.330Z,97.78
2024-05-09T06:19:52.908Z,93.16
2024-05-09T06:24:58.613Z,88.10
2024-05-09T06:30:05.173Z,78.44
2024-05-09T06:35:13.466Z,75.95
2024-05-09T06:40:25.665Z,71.24
2024-05-09T06:45:39.994Z,69.40
2024-05-09T06:50:48.587Z,67.00
2024-05-09T06:55:54.300Z,65.70
2024-05-09T07:00:59.803Z,64.19
2024-05-09T07:06:08.312Z,61.88
2024-05-09T07:11:13.967Z,59.27
2024-05-09T07:16:19.526Z,58.22
2024-05-09T07:21:27.728Z,57.09
2024-05-09T07:26:33.221Z,53.30
2024-05-09T07:31:38.731Z,51.79
2024-05-09T07:36:46.914Z,46.89
2024-05-09T07:41:52.363Z,47.89
2024-05-09T07:57:17.396Z,43.95
2024-05-09T08:02:22.984Z,43.93
2024-05-09T08:07:31.510Z,44.84
2024-05-09T08:12:36.946Z,45.15
2024-05-09T08:17:42.508Z,45.04
2024-05-09T08:22:50.624Z,44.41
2024-05-09T08:27:56.023Z,46.24
2024-05-09T08:33:01.502Z,46.34
2024-05-09T08:38:11.011Z,47.89
2024-05-09T08:43:20.174Z,46.47
2024-05-09T08:48:26.987Z,45.01
2024-05-09T08:53:35.293Z,45.46
2024-05-09T08:58:42.392Z,44.13
2024-05-09T09:03:49.172Z,41.81
2024-05-09T09:08:58.987Z,40.40
2024-05-09T09:14:04.456Z,40.63
2024-05-09T09:19:10.075Z,42.15
2024-05-09T09:24:18.249Z,41.18
2024-05-09T09:29:24.227Z,38.17
2024-05-09T09:34:31.336Z,39.48
2024-05-09T09:39:48.956Z,41.32
2024-05-09T09:45:03.886Z,38.50
2024-05-09T09:50:16.674Z,38.34
2024-05-09T09:55:26.186Z,37.61
2024-05-09T10:00:33.429Z,37.60
2024-05-09T10:05:42.188Z,41.64
2024-05-09T10:10:52.700Z,36.38
2024-05-09T10:15:58.340Z,36.13
2024-05-09T10:21:04.284Z,35.91
2024-05-09T10:26:12.574Z,38.41
2024-05-09T10:31:19.384Z,36.85
2024-05-09T10:36:26.190Z,38.61
2024-05-09T10:41:34.248Z,38.99
2024-05-09T10:46:39.893Z,40.99
2024-05-09T10:51:47.202Z,38.76
2024-05-09T10:57:02.188Z,38.34
2024-05-09T11:02:09.517Z,38.33
2024-05-09T11:07:18.350Z,39.24
2024-05-09T11:12:26.663Z,37.16
2024-05-09T11:17:40.469Z,37.73
2024-05-09T11:22:46.086Z,37.63
2024-05-09T11:27:54.229Z,37.40
2024-05-09T11:32:59.974Z,37.72
2024-05-09T11:38:05.637Z,38.17
2024-05-09T11:43:13.894Z,38.71
2024-05-09T11:48:19.931Z,39.73
2024-05-09T11:53:25.605Z,38.57
2024-05-09T11:58:34.887Z,39.36
2024-05-09T12:03:40.600Z,40.85
2024-05-09T12:08:46.287Z,39.60
2024-05-09T12:13:54.378Z,40.22
2024-05-09T12:18:59.978Z,39.12
2024-05-09T12:24:05.500Z,39.81
2024-05-09T12:29:13.943Z,40.18
2024-05-09T12:34:19.802Z,39.53
2024-05-09T12:39:25.300Z,38.32
2024-05-09T12:44:33.411Z,39.08
2024-05-09T12:49:38.998Z,39.93
2024-05-09T12:54:44.658Z,40.19
2024-05-09T12:59:52.795Z,39.66
2024-05-09T13:04:58.397Z,38.70
2024-05-09T13:10:04.646Z,40.15
2024-05-09T13:15:13.961Z,39.06
2024-05-09T13:20:28.892Z,38.35
2024-05-09T13:25:38.599Z,38.51
2024-05-09T13:30:46.791Z,37.55
2024-05-09T13:35:52.303Z,39.49
2024-05-09T13:40:57.761Z,39.16
2024-05-09T13:46:05.969Z,38.86
2024-05-09T13:51:11.451Z,39.00
2024-05-09T13:56:16.935Z,37.67
2024-05-09T14:01:25.022Z,38.94
2024-05-09T14:06:30.995Z,40.03
2024-05-09T14:11:36.668Z,39.74
2024-05-09T14:16:45.917Z,39.12
2024-05-09T14:21:51.510Z,38.18
2024-05-09T14:26:57.000Z,38.62
2024-05-09T14:32:05.916Z,40.13
2024-05-09T14:37:11.859Z,39.31
2024-05-09T14:42:17.912Z,38.97
2024-05-09T14:47:26.216Z,39.27
2024-05-09T14:52:31.743Z,39.19
2024-05-09T14:57:37.906Z,38.28
2024-05-09T15:02:46.617Z,37.87
2024-05-09T15:07:53.459Z,38.03
2024-05-09T15:12:58.947Z,39.57
2024-05-09T15:18:07.671Z,38.21
2024-05-09T15:23:13.403Z,38.86
2024-05-09T15:28:19.126Z,38.66
2024-05-09T15:33:27.970Z,38.31
2024-05-09T15:38:33.707Z,38.25
2024-05-09T15:43:39.222Z,38.81
2024-05-09T15:48:47.525Z,38.34
2024-05-09T15:53:53.084Z,38.28
2024-05-09T15:58:58.734Z,38.45
2024-05-09T16:04:06.970Z,39.04
2024-05-09T16:09:12.723Z,38.64
2024-05-09T16:14:19.030Z,38.10
2024-05-09T16:19:27.052Z,38.99
2024-05-09T16:24:32.496Z,38.99
2024-05-09T16:29:38.406Z,39.09
2024-05-09T16:34:46.484Z,39.29
2024-05-09T16:39:52.070Z,38.01
2024-05-09T16:44:57.531Z,39.13
2024-05-09T16:50:08.375Z,39.50
2024-05-09T16:55:14.184Z,39.33
2024-05-09T17:00:30.937Z,38.49
2024-05-09T17:05:47.997Z,40.40
2024-05-09T17:10:54.091Z,40.33
2024-05-09T17:15:59.734Z,40.66
2024-05-09T17:21:08.488Z,40.76
2024-05-09T17:26:14.181Z,39.88
2024-05-09T17:31:19.911Z,40.55
2024-05-09T17:36:28.275Z,40.29
2024-05-09T17:41:33.707Z,40.92
2024-05-09T17:46:39.344Z,40.47
2024-05-09T17:51:56.949Z,41.16
2024-05-09T17:57:02.470Z,41.59
2024-05-09T18:02:08.361Z,42.36
2024-05-09T18:07:17.084Z,42.66
2024-05-09T18:12:22.661Z,43.76
2024-05-09T18:17:28.328Z,44.93
2024-05-09T18:22:36.470Z,46.49
2024-05-09T18:27:42.113Z,47.96
2024-05-09T18:32:48.295Z,49.13
2024-05-09T18:37:57.793Z,51.05
2024-05-09T18:43:04.214Z,51.89
2024-05-09T18:48:12.202Z,52.70
2024-05-09T18:53:20.539Z,54.65
2024-05-09T18:58:26.020Z,55.71
2024-05-09T19:03:31.739Z,57.00
2024-05-09T19:08:40.155Z,58.53
2024-05-09T19:13:45.825Z,60.38
2024-05-09T19:18:51.711Z,61.91
2024-05-09T19:24:00.222Z,64.58
2024-05-09T19:29:05.669Z,68.08
2024-05-09T19:34:11.157Z,69.55
2024-05-09T19:39:19.312Z,70.59
2024-05-09T19:44:25.007Z,71.38
2024-05-09T19:49:30.779Z,72.15
2024-05-09T19:54:39.128Z,72.12
2024-05-09T19:59:44.814Z,73.80
2024-05-09T20:04:50.656Z,74.09
2024-05-09T20:09:58.799Z,73.97
2024-05-09T20:15:04.804Z,75.45
2024-05-09T20:20:20.271Z,75.38
2024-05-09T20:25:36.325Z,77.70
2024-05-09T20:30:42.039Z,76.46
2024-05-09T20:35:47.647Z,77.17
2024-05-09T20:40:55.814Z,77.53
2024-05-09T20:46:01.308Z,77.34
2024-05-09T20:51:07.012Z,79.96
2024-05-09T20:56:15.118Z,80.09
2024-05-09T21:01:20.674Z,81.56
2024-05-09T21:06:26.190Z,82.30
2024-05-09T21:11:34.358Z,83.00
2024-05-09T21:16:40.087Z,83.12
2024-05-09T21:21:45.875Z,84.09
2024-05-09T21:26:56.617Z,84.50
2024-05-09T21:32:02.060Z,84.20
2024-05-09T21:37:07.984Z,85.10
2024-05-09T21:42:16.074Z,84.69
2024-05-09T21:47:21.652Z,85.13
2024-05-09T21:52:27.246Z,85.25
2024-05-09T21:57:35.366Z,86.10
2024-05-09T22:02:40.892Z,87.58
2024-05-09T22:07:46.365Z,86.84
2024-05-09T22:12:54.439Z,87.23
2024-05-09T22:18:00.281Z,89.39
2024-05-09T22:23:05.897Z,88.90
2024-05-09T22:28:16.697Z,88.13
2024-05-09T22:33:22.539Z,89.25
2024-05-09T22:38:28.048Z,89.44
2024-05-09T22:43:36.286Z,89.42
2024-05-09T22:48:41.867Z,89.62
2024-05-09T22:53:47.481Z,90.14
2024-05-09T22:58:55.511Z,90.21
2024-05-09T23:04:01.160Z,91.56
2024-05-09T23:09:08.309Z,91.98
2024-05-09T23:14:17.959Z,92.02
2024-05-09T23:19:23.531Z,92.44
2024-05-09T23:24:29.016Z,93.00
2024-05-09T23:29:37.171Z,93.37
2024-05-09T23:34:42.676Z,93.61
2024-05-09T23:39:48.220Z,93.89
2024-05-09T23:44:58.426Z,93.62
2024-05-09T23:50:06.802Z,93.94
2024-05-09T23:55:14.545Z,93.84
